createdAt,value
2022-10-23T00:01:44.428Z,99905.13
2022-10-23T00:04:19.765Z,99881.31
2022-10-23T00:06:47.171Z,99898.16
2022-10-23T00:09:17.453Z,99909.59
2022-10-23T00:11:47.631Z,99874.75
2022-10-23T00:14:16.261Z,99885.44
2022-10-23T00:16:43.120Z,99890.66
2022-10-23T00:19:09.767Z,99857.56
2022-10-23T00:21:36.477Z,99854.25
2022-10-23T00:24:03.486Z,99889.56
2022-10-23T00:26:30.221Z,99868.16
2022-10-23T00:28:57.152Z,99882.06
2022-10-23T00:31:25.083Z,99897.63
2022-10-23T00:33:53.030Z,99886.09
2022-10-23T00:36:21.187Z,99898.19
2022-10-23T00:38:48.824Z,99882.53
2022-10-23T00:41:24.044Z,99891.56
2022-10-23T00:44:01.465Z,99865.84
2022-10-23T00:46:28.643Z,99844.84
2022-10-23T00:48:56.960Z,99865.41
2022-10-23T00:51:27.853Z,99851.38
2022-10-23T00:54:06.609Z,99870.63
2022-10-23T00:56:46.459Z,99807.03
2022-10-23T00:59:13.060Z,99877.50
2022-10-23T01:01:40.733Z,99877.69
2022-10-23T01:04:10.024Z,99835.94
2022-10-23T01:06:59.574Z,99877.50
2022-10-23T01:10:10.992Z,99868.94
2022-10-23T01:12:43.389Z,99862.41
2022-10-23T01:15:17.871Z,99860.34
2022-10-23T01:18:30.885Z,99860.81
2022-10-23T01:21:11.283Z,99861.22
2022-10-23T01:23:56.436Z,99855.41
2022-10-23T01:27:00.433Z,99855.75
2022-10-23T01:29:39.448Z,99838.75
2022-10-23T01:32:11.852Z,99834.28
2022-10-23T01:34:44.457Z,99833.09
2022-10-23T01:37:14.099Z,99855.22
2022-10-23T01:39:48.455Z,99825.59
2022-10-23T01:42:24.185Z,99849.75
2022-10-23T01:44:57.387Z,99826.06
2022-10-23T01:47:28.472Z,99847.00
2022-10-23T01:50:02.449Z,99821.88
2022-10-23T01:52:29.172Z,99841.91
2022-10-23T01:55:00.261Z,99828.28
2022-10-23T01:57:31.203Z,99844.16
2022-10-23T02:00:11.681Z,99835.59
2022-10-23T02:02:55.913Z,99853.75
2022-10-23T02:05:30.879Z,99834.00
2022-10-23T02:08:00.424Z,99836.41
2022-10-23T02:10:53.717Z,99825.06
2022-10-23T02:13:59.332Z,99823.59
2022-10-23T02:16:28.908Z,99816.66
2022-10-23T02:19:02.176Z,99820.22
2022-10-23T02:21:37.536Z,99823.22
2022-10-23T02:24:09.240Z,99737.72
2022-10-23T02:26:53.933Z,99795.06
2022-10-23T02:29:33.563Z,99816.59
2022-10-23T02:32:01.825Z,99806.81
2022-10-23T02:34:28.603Z,99782.44
2022-10-23T02:36:55.279Z,99800.63
2022-10-23T02:39:26.900Z,99798.69
2022-10-23T02:42:06.882Z,99791.88
2022-10-23T02:44:45.255Z,99813.25
2022-10-23T02:47:33.099Z,99801.16
2022-10-23T02:50:36.031Z,99795.16
2022-10-23T02:53:10.301Z,99773.53
2022-10-23T02:55:59.903Z,99790.09
2022-10-23T02:58:34.962Z,99766.53
2022-10-23T03:01:16.201Z,99787.38
2022-10-23T03:03:55.077Z,99800.19
2022-10-23T03:06:22.935Z,99784.75
2022-10-23T03:08:57.619Z,99773.31
2022-10-23T03:11:25.668Z,99769.66
2022-10-23T03:13:52.584Z,99772.72
2022-10-23T03:16:19.180Z,99778.69
2022-10-23T03:18:51.593Z,99759.47
2022-10-23T03:21:18.323Z,99747.13
2022-10-23T03:23:44.936Z,99774.75
2022-10-23T03:26:17.315Z,99760.78
2022-10-23T03:28:43.926Z,99760.97
2022-10-23T03:31:10.641Z,99759.53
2022-10-23T03:33:38.980Z,99750.47
2022-10-23T03:36:09.286Z,99744.72
2022-10-23T03:38:36.165Z,99768.72
2022-10-23T03:41:04.292Z,99762.44
2022-10-23T03:43:30.871Z,99741.38
2022-10-23T03:45:57.628Z,99747.50
2022-10-23T03:48:25.860Z,99700.53
2022-10-23T03:50:57.061Z,99777.22
2022-10-23T03:53:23.707Z,99780.50
2022-10-23T03:55:50.359Z,99756.69
2022-10-23T03:58:17.486Z,99781.44
2022-10-23T04:00:44.280Z,99768.19
2022-10-23T04:03:10.912Z,99748.53
2022-10-23T04:05:37.795Z,99770.53
2022-10-23T04:08:04.594Z,99765.41
2022-10-23T04:10:32.863Z,99770.78
2022-10-23T04:12:59.447Z,99770.66
2022-10-23T04:15:27.200Z,99783.09
2022-10-23T04:17:54.555Z,99744.75
2022-10-23T04:20:21.170Z,99751.91
2022-10-23T04:22:47.791Z,99719.78
2022-10-23T04:25:14.589Z,99764.06
2022-10-23T04:27:41.563Z,99778.97
2022-10-23T04:30:09.334Z,99772.16
2022-10-23T04:32:37.712Z,99755.31
2022-10-23T04:35:05.040Z,99785.22
2022-10-23T04:37:31.660Z,99778.59
2022-10-23T04:39:59.820Z,99781.78
2022-10-23T04:44:54.303Z,99773.47
2022-10-23T04:47:20.865Z,99783.88
2022-10-23T04:49:56.900Z,99765.13
2022-10-23T04:52:56.534Z,99765.06
2022-10-23T04:55:53.648Z,99723.59
2022-10-23T04:58:29.579Z,99745.06
2022-10-23T05:00:58.616Z,99735.66
2022-10-23T05:03:26.456Z,99758.13
2022-10-23T05:05:55.415Z,99761.91
2022-10-23T05:08:29.739Z,99757.75
2022-10-23T05:11:05.575Z,99758.34
2022-10-23T05:13:37.121Z,99762.34
2022-10-23T05:16:04.042Z,99758.31
2022-10-23T05:18:44.395Z,99739.03
2022-10-23T05:21:21.747Z,99748.72
2022-10-23T05:23:50.551Z,99722.03
2022-10-23T05:26:17.514Z,99736.66
2022-10-23T05:28:46.532Z,99731.56
2022-10-23T05:31:17.586Z,99735.47
2022-10-23T05:33:48.772Z,99702.94
2022-10-23T05:36:16.779Z,99732.94
2022-10-23T05:38:45.786Z,99698.31
2022-10-23T05:41:16.576Z,99668.19
2022-10-23T05:43:43.418Z,99719.25
2022-10-23T05:46:30.036Z,99718.25
2022-10-23T05:49:11.471Z,99721.09
2022-10-23T05:52:13.829Z,99710.47
2022-10-23T05:54:51.725Z,99690.75
2022-10-23T05:57:36.445Z,99703.09
2022-10-23T06:00:07.764Z,99673.75
2022-10-23T06:02:40.199Z,99711.22
2022-10-23T06:05:19.699Z,99698.91
2022-10-23T06:08:00.441Z,99684.34
2022-10-23T06:10:27.904Z,99692.13
2022-10-23T06:12:57.133Z,99682.13
2022-10-23T06:15:26.061Z,99661.13
2022-10-23T06:18:01.974Z,99692.00
2022-10-23T06:20:30.513Z,99670.28
2022-10-23T06:23:07.517Z,99635.22
2022-10-23T06:25:56.518Z,99670.50
2022-10-23T06:28:32.375Z,99689.09
2022-10-23T06:30:59.609Z,99665.72
2022-10-23T06:33:26.399Z,99595.84
2022-10-23T06:35:56.133Z,99688.72
2022-10-23T06:38:22.853Z,99675.59
2022-10-23T06:40:55.860Z,99683.44
2022-10-23T06:43:34.503Z,99681.81
2022-10-23T06:46:20.532Z,99639.47
2022-10-23T06:49:05.599Z,99676.44
2022-10-23T06:51:38.448Z,99634.06
2022-10-23T06:54:10.440Z,99630.22
2022-10-23T06:56:57.023Z,99680.00
2022-10-23T06:59:33.328Z,99658.53
2022-10-23T07:02:00.458Z,99654.00
2022-10-23T07:04:27.740Z,99664.09
2022-10-23T07:06:57.139Z,99629.88
2022-10-23T07:09:29.140Z,99674.16
2022-10-23T07:11:55.808Z,99636.88
2022-10-23T07:14:34.160Z,99646.69
2022-10-23T07:17:02.960Z,99641.19
2022-10-23T07:19:29.640Z,99643.63
2022-10-23T07:21:57.848Z,99677.59
2022-10-23T07:24:50.518Z,99656.94
2022-10-23T07:27:25.928Z,99659.56
2022-10-23T07:29:57.488Z,99652.41
2022-10-23T07:32:24.785Z,99620.06
2022-10-23T07:35:23.578Z,99675.09
2022-10-23T07:38:00.087Z,99654.63
2022-10-23T07:40:29.244Z,99636.97
2022-10-23T07:42:56.868Z,99622.78
2022-10-23T07:45:23.752Z,99620.44
2022-10-23T07:47:51.885Z,99674.44
2022-10-23T07:50:20.104Z,99655.78
2022-10-23T07:52:47.612Z,99659.56
2022-10-23T07:55:17.451Z,99659.09
2022-10-23T07:57:54.964Z,99637.19
2022-10-23T08:00:34.585Z,99573.00
2022-10-23T08:03:12.731Z,99639.63
2022-10-23T08:05:39.669Z,99663.72
2022-10-23T08:08:06.387Z,99640.50
2022-10-23T08:10:33.630Z,99641.63
2022-10-23T08:13:00.796Z,99615.50
2022-10-23T08:15:49.684Z,99625.78
2022-10-23T08:18:36.353Z,99569.34
2022-10-23T08:21:04.207Z,99555.47
2022-10-23T08:23:31.723Z,99584.25
2022-10-23T08:26:00.448Z,99571.97
2022-10-23T08:28:29.622Z,99558.81
2022-10-23T08:30:57.875Z,99560.72
2022-10-23T08:33:24.996Z,99537.91
2022-10-23T08:35:52.186Z,99555.50
2022-10-23T08:38:27.879Z,99564.00
2022-10-23T08:40:55.259Z,99555.03
2022-10-23T08:43:50.584Z,99560.03
2022-10-23T08:46:40.360Z,99529.34
2022-10-23T08:49:47.912Z,99553.38
2022-10-23T08:52:57.261Z,99567.81
2022-10-23T08:55:52.374Z,99563.63
2022-10-23T08:58:33.546Z,99546.19
2022-10-23T09:01:00.441Z,99571.47
2022-10-23T09:03:27.615Z,99511.81
2022-10-23T09:06:25.238Z,99528.78
2022-10-23T09:09:12.120Z,99545.94
2022-10-23T09:11:47.324Z,99540.00
2022-10-23T09:14:32.459Z,99530.63
2022-10-23T09:17:05.099Z,99534.56
2022-10-23T09:19:32.078Z,99514.91
2022-10-23T09:21:59.305Z,99504.75
2022-10-23T09:24:31.422Z,99531.91
2022-10-23T09:26:58.675Z,99536.34
2022-10-23T09:29:32.729Z,99540.47
2022-10-23T09:32:00.995Z,99522.09
2022-10-23T09:34:29.903Z,99525.06
2022-10-23T09:36:59.762Z,99524.81
2022-10-23T09:39:36.672Z,99538.41
2022-10-23T09:42:20.838Z,99524.72
2022-10-23T09:44:49.787Z,99499.69
2022-10-23T09:47:20.561Z,99502.44
2022-10-23T09:49:49.957Z,99491.72
2022-10-23T09:52:17.632Z,99505.84
2022-10-23T09:55:21.502Z,99507.75
2022-10-23T09:57:48.279Z,99526.38
2022-10-23T10:00:19.553Z,99522.69
2022-10-23T10:02:55.716Z,99528.09
2022-10-23T10:05:53.049Z,99512.53
2022-10-23T10:08:21.506Z,99526.00
2022-10-23T10:10:53.825Z,99507.13
2022-10-23T10:13:32.507Z,99526.16
2022-10-23T10:16:07.466Z,99527.78
2022-10-23T10:18:40.154Z,99522.75
2022-10-23T10:21:15.678Z,99517.81
2022-10-23T10:24:05.247Z,99504.47
2022-10-23T10:26:40.225Z,99497.97
2022-10-23T10:29:12.861Z,99507.50
2022-10-23T10:32:05.907Z,99483.03
2022-10-23T10:34:53.942Z,99519.41
2022-10-23T10:37:49.542Z,99493.78
2022-10-23T10:40:32.733Z,99474.00
2022-10-23T10:43:19.957Z,99495.03
2022-10-23T10:46:17.625Z,99472.03
2022-10-23T10:48:53.431Z,99459.25
2022-10-23T10:51:46.537Z,99448.72
2022-10-23T10:54:19.216Z,99381.69
2022-10-23T10:56:47.865Z,99450.84
2022-10-23T10:59:28.571Z,99433.53
2022-10-23T11:01:55.364Z,99428.09
2022-10-23T11:04:49.252Z,99401.31
2022-10-23T11:07:21.878Z,99436.53
2022-10-23T11:09:49.688Z,99445.25
2022-10-23T11:12:19.985Z,99449.75
2022-10-23T11:14:46.709Z,99461.53
2022-10-23T11:17:16.979Z,99454.84
2022-10-23T11:19:49.196Z,99421.09
2022-10-23T11:22:25.305Z,99459.72
2022-10-23T11:25:26.774Z,99457.03
2022-10-23T11:28:04.392Z,99443.75
2022-10-23T11:30:55.488Z,99399.47
2022-10-23T11:33:59.377Z,99417.75
2022-10-23T11:36:43.046Z,99413.59
2022-10-23T11:39:27.009Z,99402.22
2022-10-23T11:42:11.646Z,99408.41
2022-10-23T11:44:46.509Z,99397.78
2022-10-23T11:47:36.310Z,99396.66
2022-10-23T11:50:08.564Z,99392.03
2022-10-23T11:52:45.561Z,99383.72
2022-10-23T11:55:19.592Z,99373.91
2022-10-23T11:58:14.027Z,99358.34
2022-10-23T12:00:52.367Z,99364.31
2022-10-23T12:03:24.434Z,99358.09
2022-10-23T12:06:26.410Z,99371.91
2022-10-23T12:08:58.898Z,99365.72
2022-10-23T12:11:47.709Z,99374.13
2022-10-23T12:14:34.359Z,99365.75
2022-10-23T12:17:02.135Z,99345.50
2022-10-23T12:19:43.836Z,99299.56
2022-10-23T12:22:11.409Z,99344.91
2022-10-23T12:24:59.718Z,99350.28
2022-10-23T12:27:43.934Z,99355.69
2022-10-23T12:30:26.581Z,99351.66
2022-10-23T12:33:15.437Z,99343.78
2022-10-23T12:36:04.256Z,99324.38
2022-10-23T12:38:34.023Z,99337.38
2022-10-23T12:41:10.215Z,99341.41
2022-10-23T12:43:38.441Z,99338.56
2022-10-23T12:46:22.075Z,99279.28
2022-10-23T12:48:50.312Z,99343.19
2022-10-23T12:51:23.636Z,99341.94
2022-10-23T12:53:50.951Z,99351.59
2022-10-23T12:56:18.701Z,99325.72
2022-10-23T12:58:51.209Z,99333.06
2022-10-23T13:01:27.869Z,99290.94
2022-10-23T13:04:21.994Z,99327.63
2022-10-23T13:06:50.005Z,99313.03
2022-10-23T13:09:24.166Z,99269.88
2022-10-23T13:12:20.787Z,99316.28
2022-10-23T13:15:18.479Z,99310.50
2022-10-23T13:17:57.222Z,99308.31
2022-10-23T13:20:27.096Z,99246.63
2022-10-23T13:23:01.294Z,99286.28
2022-10-23T13:25:33.481Z,99277.13
2022-10-23T13:28:26.048Z,99275.13
2022-10-23T13:30:58.578Z,99264.59
2022-10-23T13:33:33.190Z,99260.28
2022-10-23T13:36:02.878Z,99218.03
2022-10-23T13:38:40.678Z,99228.88
2022-10-23T13:41:13.922Z,99278.53
2022-10-23T13:43:41.669Z,99293.75
2022-10-23T13:46:15.868Z,99274.16
2022-10-23T13:48:43.078Z,99282.84
2022-10-23T13:51:20.977Z,99264.69
2022-10-23T13:53:48.098Z,99253.13
2022-10-23T13:56:16.886Z,99263.09
2022-10-23T13:58:43.596Z,99253.84
2022-10-23T14:01:22.251Z,99261.22
2022-10-23T14:03:52.857Z,99239.06
2022-10-23T14:06:19.757Z,99254.44
2022-10-23T14:08:47.084Z,99228.13
2022-10-23T14:11:15.783Z,99238.19
2022-10-23T14:13:42.718Z,99239.31
2022-10-23T14:16:12.426Z,99198.66
2022-10-23T14:18:39.217Z,99210.56
2022-10-23T14:21:07.341Z,99187.13
2022-10-23T14:23:34.079Z,99207.34
2022-10-23T14:26:04.267Z,99202.50
2022-10-23T14:28:31.067Z,99192.25
2022-10-23T14:30:57.707Z,99196.28
2022-10-23T14:33:24.350Z,99194.69
2022-10-23T14:35:51.159Z,99192.25
2022-10-23T14:38:17.810Z,99169.06
2022-10-23T14:40:44.459Z,99147.19
2022-10-23T14:43:11.151Z,99176.31
2022-10-23T14:45:37.932Z,99183.06
2022-10-23T14:48:04.819Z,99191.66
2022-10-23T14:50:33.775Z,99185.16
2022-10-23T14:55:32.162Z,99176.75
2022-10-23T14:57:58.853Z,99167.59
2022-10-23T15:00:25.807Z,99166.97
2022-10-23T15:02:52.596Z,99175.88
2022-10-23T15:05:19.613Z,99158.63
2022-10-23T15:07:46.228Z,99183.41
2022-10-23T15:10:12.967Z,99168.56
2022-10-23T15:12:39.980Z,99149.44
2022-10-23T15:15:07.707Z,99163.19
2022-10-23T15:17:35.911Z,99167.47
2022-10-23T15:20:03.477Z,99150.25
2022-10-23T15:22:30.369Z,99138.13
2022-10-23T15:24:57.397Z,99136.78
2022-10-23T15:27:24.057Z,99142.44
2022-10-23T15:29:50.672Z,99133.28
2022-10-23T15:32:17.423Z,99147.25
2022-10-23T15:34:44.142Z,99150.50
2022-10-23T15:37:11.291Z,99135.44
2022-10-23T15:39:37.952Z,99140.00
2022-10-23T15:42:06.655Z,99120.53
2022-10-23T15:44:34.345Z,99081.19
2022-10-23T15:47:01.227Z,99106.63
2022-10-23T15:49:31.889Z,99106.81
2022-10-23T15:51:59.070Z,99089.25
2022-10-23T15:54:28.192Z,99085.75
2022-10-23T15:56:57.605Z,99087.91
2022-10-23T15:59:25.561Z,99093.00
2022-10-23T16:01:53.009Z,99090.53
2022-10-23T16:04:20.192Z,99098.59
2022-10-23T16:06:47.629Z,99099.88
2022-10-23T16:09:14.973Z,99096.59
2022-10-23T16:11:43.409Z,99061.91
2022-10-23T16:14:17.132Z,99108.53
2022-10-23T16:16:43.857Z,99096.50
2022-10-23T16:19:11.546Z,99093.19
2022-10-23T16:21:38.419Z,99110.69
2022-10-23T16:24:07.387Z,99106.69
2022-10-23T16:26:34.567Z,99095.88
2022-10-23T16:29:04.038Z,99106.53
2022-10-23T16:31:30.856Z,99103.78
2022-10-23T16:34:00.222Z,99126.88
2022-10-23T16:36:28.119Z,99095.41
2022-10-23T16:39:14.721Z,99094.69
2022-10-23T16:42:00.014Z,99077.72
2022-10-23T16:44:36.748Z,99103.84
2022-10-23T16:47:05.990Z,99063.81
2022-10-23T16:49:32.737Z,99071.75
2022-10-23T16:51:59.325Z,99068.03
2022-10-23T16:54:26.064Z,99009.31
2022-10-23T16:56:52.715Z,99074.09
2022-10-23T16:59:19.356Z,99080.16
2022-10-23T17:01:46.116Z,99084.22
2022-10-23T17:04:12.865Z,99084.72
2022-10-23T17:06:39.555Z,99105.66
2022-10-23T17:09:07.357Z,99100.41
2022-10-23T17:11:37.761Z,98992.25
2022-10-23T17:14:11.961Z,99134.44
2022-10-23T17:16:47.403Z,99150.97
2022-10-23T17:19:33.044Z,99130.72
2022-10-23T17:22:03.612Z,99152.47
2022-10-23T17:24:30.229Z,99155.16
2022-10-23T17:26:56.890Z,99167.50
2022-10-23T17:29:23.618Z,99135.59
2022-10-23T17:31:50.926Z,99132.81
2022-10-23T17:34:21.901Z,99187.75
2022-10-23T17:36:51.585Z,99171.06
2022-10-23T17:39:21.286Z,99162.06
2022-10-23T17:41:48.351Z,99176.50
2022-10-23T17:44:15.273Z,99181.41
2022-10-23T17:46:41.938Z,99106.94
2022-10-23T17:49:09.861Z,99186.31
2022-10-23T17:51:36.689Z,99213.53
2022-10-23T17:54:09.117Z,99160.66
2022-10-23T17:56:38.289Z,99199.44
2022-10-23T17:59:12.281Z,99200.16
2022-10-23T18:01:40.038Z,99243.47
2022-10-23T18:04:08.190Z,99283.19
2022-10-23T18:06:40.454Z,99313.88
2022-10-23T18:09:15.131Z,99358.09
2022-10-23T18:11:47.091Z,99379.88
2022-10-23T18:14:17.027Z,99377.50
2022-10-23T18:16:45.506Z,99390.75
2022-10-23T18:19:12.779Z,99389.44
2022-10-23T18:21:40.132Z,99359.94
2022-10-23T18:24:07.447Z,99360.56
2022-10-23T18:26:35.180Z,99365.09
2022-10-23T18:29:07.072Z,99387.06
2022-10-23T18:31:35.822Z,99390.16
2022-10-23T18:34:13.546Z,99382.94
2022-10-23T18:36:40.789Z,99354.69
2022-10-23T18:39:11.216Z,99331.03
2022-10-23T18:41:40.672Z,99309.78
2022-10-23T18:44:09.182Z,99297.28
2022-10-23T18:46:37.153Z,99335.75
2022-10-23T18:49:04.406Z,99331.03
2022-10-23T18:51:33.885Z,99312.50
2022-10-23T18:54:06.751Z,99320.31
2022-10-23T18:56:35.841Z,99325.34
2022-10-23T18:59:05.248Z,99353.47
2022-10-23T19:01:32.217Z,99349.75
2022-10-23T19:04:00.855Z,99351.44
2022-10-23T19:06:28.980Z,99409.25
2022-10-23T19:08:56.451Z,99399.25
2022-10-23T19:11:25.173Z,99336.19
2022-10-23T19:13:52.503Z,99318.44
2022-10-23T19:16:23.725Z,99273.03
2022-10-23T19:18:57.653Z,99280.59
2022-10-23T19:21:31.377Z,99293.75
2022-10-23T19:24:01.887Z,99288.22
2022-10-23T19:26:30.918Z,99240.78
2022-10-23T19:28:58.380Z,99249.63
2022-10-23T19:31:26.474Z,99257.25
2022-10-23T19:33:53.802Z,99276.59
2022-10-23T19:36:23.460Z,99247.81
2022-10-23T19:38:50.965Z,99244.66
2022-10-23T19:41:18.823Z,99276.88
2022-10-23T19:43:45.653Z,99259.16
2022-10-23T19:46:12.628Z,99274.75
2022-10-23T19:48:45.091Z,99289.53
2022-10-23T19:51:13.300Z,99282.38
2022-10-23T19:53:41.821Z,99281.16
2022-10-23T19:56:10.797Z,99293.94
2022-10-23T19:58:38.561Z,99268.06
2022-10-23T20:01:16.145Z,99317.28
2022-10-23T20:03:45.447Z,99321.97
2022-10-23T20:06:14.355Z,99328.28
2022-10-23T20:08:41.709Z,99327.38
2022-10-23T20:11:09.634Z,99328.56
2022-10-23T20:13:36.441Z,99311.38
2022-10-23T20:16:03.283Z,99331.47
2022-10-23T20:18:30.800Z,99329.84
2022-10-23T20:21:02.253Z,99323.69
2022-10-23T20:23:28.994Z,99330.09
2022-10-23T20:26:03.857Z,99325.78
2022-10-23T20:28:30.571Z,99323.03
2022-10-23T20:30:57.323Z,99331.28
2022-10-23T20:33:24.180Z,99335.63
2022-10-23T20:35:50.945Z,99339.59
2022-10-23T20:38:17.784Z,99348.88
2022-10-23T20:40:44.518Z,99348.88
2022-10-23T20:43:11.370Z,99341.56
2022-10-23T20:45:38.092Z,99344.81
2022-10-23T20:48:05.117Z,99363.53
2022-10-23T20:50:34.909Z,99366.09
2022-10-23T20:53:01.586Z,99365.75
2022-10-23T20:55:28.313Z,99353.66
2022-10-23T20:57:55.139Z,99355.59
2022-10-23T21:00:21.884Z,99354.22
2022-10-23T21:02:50.034Z,99355.75
2022-10-23T21:05:19.165Z,99354.03
2022-10-23T21:07:45.847Z,99369.56
2022-10-23T21:10:12.531Z,99360.03
2022-10-23T21:12:39.264Z,99338.19
2022-10-23T21:15:06.712Z,99358.56
2022-10-23T21:17:36.029Z,99362.13
2022-10-23T21:20:03.228Z,99369.69
2022-10-23T21:22:30.027Z,99355.34
2022-10-23T21:24:58.373Z,99371.13
2022-10-23T21:27:25.047Z,99372.41
2022-10-23T21:29:51.823Z,99396.41
2022-10-23T21:32:19.243Z,99381.97
2022-10-23T21:34:45.976Z,99395.47
2022-10-23T21:37:14.267Z,99390.50
2022-10-23T21:39:42.791Z,99372.88
2022-10-23T21:42:10.602Z,99390.84
2022-10-23T21:44:37.528Z,99366.16
2022-10-23T21:47:04.619Z,99366.00
2022-10-23T21:49:32.018Z,99387.97
2022-10-23T21:51:58.763Z,99394.41
2022-10-23T21:54:25.580Z,99394.41
2022-10-23T21:56:53.944Z,99411.56
2022-10-23T21:59:24.175Z,99408.28
2022-10-23T22:01:51.666Z,99410.75
2022-10-23T22:04:19.858Z,99407.47
2022-10-23T22:06:48.541Z,99384.41
2022-10-23T22:09:19.131Z,99401.75
2022-10-23T22:11:46.261Z,99411.41
2022-10-23T22:14:12.925Z,99395.69
2022-10-23T22:16:39.717Z,99399.47
2022-10-23T22:19:06.455Z,99410.59
2022-10-23T22:21:33.167Z,99402.63
2022-10-23T22:24:00.796Z,99419.00
2022-10-23T22:26:31.831Z,99416.47
2022-10-23T22:29:02.040Z,99389.75
2022-10-23T22:31:31.538Z,99426.28
2022-10-23T22:33:59.683Z,99394.75
2022-10-23T22:36:26.691Z,99421.38
2022-10-23T22:38:54.925Z,99453.72
2022-10-23T22:41:21.702Z,99450.25
2022-10-23T22:43:48.393Z,99443.88
2022-10-23T22:46:18.313Z,99430.56
2022-10-23T22:48:45.827Z,99425.97
2022-10-23T22:51:15.065Z,99422.13
2022-10-23T22:53:42.545Z,99393.00
2022-10-23T22:56:13.256Z,99426.16
2022-10-23T22:58:40.299Z,99430.94
2022-10-23T23:01:09.952Z,99408.78
2022-10-23T23:03:37.002Z,99420.41
2022-10-23T23:06:05.522Z,99400.56
2022-10-23T23:08:33.253Z,99429.84
2022-10-23T23:10:59.913Z,99434.81
2022-10-23T23:13:27.666Z,99440.28
2022-10-23T23:15:54.798Z,99433.53
2022-10-23T23:18:22.152Z,99442.75
2022-10-23T23:20:49.334Z,99437.03
2022-10-23T23:23:16.179Z,99451.47
2022-10-23T23:25:48.542Z,99437.16
2022-10-23T23:28:18.035Z,99434.88
2022-10-23T23:33:14.050Z,99426.63
2022-10-23T23:35:44.996Z,99436.97
2022-10-23T23:38:12.742Z,99403.59
2022-10-23T23:40:40.164Z,99448.72
2022-10-23T23:43:07.023Z,99449.41
2022-10-23T23:45:33.890Z,99431.38
2022-10-23T23:48:00.549Z,99453.41
2022-10-23T23:50:27.970Z,99446.31
2022-10-23T23:52:54.660Z,99446.88
2022-10-23T23:55:21.305Z,99451.41
2022-10-23T23:57:48.126Z,99423.41
